createdAt,value
2023-04-26T00:00:45.958Z,14.87
2023-04-26T00:03:15.941Z,15.83
2023-04-26T00:05:43.955Z,16.60
2023-04-26T00:08:11.531Z,15.03
2023-04-26T00:10:40.803Z,14.87
2023-04-26T00:13:08.440Z,13.77
2023-04-26T00:15:36.600Z,12.10
2023-04-26T00:18:04.146Z,10.57
2023-04-26T00:20:32.079Z,9.50
2023-04-26T00:22:59.614Z,9.70
2023-04-26T00:25:27.393Z,8.77
2023-04-26T00:27:54.815Z,7.20
2023-04-26T00:30:22.573Z,8.63
2023-04-26T00:32:50.477Z,7.70
2023-04-26T00:35:18.291Z,6.53
2023-04-26T00:37:46.362Z,7.23
2023-04-26T00:40:16.222Z,6.53
2023-04-26T00:42:43.727Z,7.07
2023-04-26T00:45:11.519Z,5.80
2023-04-26T00:47:39.188Z,7.03
2023-04-26T00:50:08.247Z,6.97
2023-04-26T00:52:36.093Z,7.43
2023-04-26T00:55:03.820Z,10.00
2023-04-26T00:57:31.363Z,7.77
2023-04-26T00:59:59.104Z,6.57
2023-04-26T01:02:27.391Z,6.87
2023-04-26T01:04:55.939Z,6.73
2023-04-26T01:07:23.840Z,6.63
2023-04-26T01:09:51.892Z,7.07
2023-04-26T01:12:19.763Z,6.23
2023-04-26T01:14:47.918Z,7.77
2023-04-26T01:17:16.683Z,7.50
2023-04-26T01:19:48.465Z,9.13
2023-04-26T01:22:16.209Z,11.63
2023-04-26T01:24:46.703Z,8.70
2023-04-26T01:27:14.311Z,6.83
2023-04-26T01:29:42.190Z,6.17
2023-04-26T01:32:10.059Z,5.07
2023-04-26T01:34:37.802Z,5.17
2023-04-26T01:37:05.250Z,4.90
2023-04-26T01:39:32.932Z,5.83
2023-04-26T01:42:00.590Z,6.57
2023-04-26T01:44:28.297Z,6.93
2023-04-26T01:46:56.095Z,7.33
2023-04-26T01:49:25.559Z,7.87
2023-04-26T01:51:55.560Z,5.63
2023-04-26T01:54:25.058Z,5.13
2023-04-26T01:56:53.845Z,8.57
2023-04-26T01:59:21.729Z,5.83
2023-04-26T02:01:49.299Z,5.23
2023-04-26T02:04:17.060Z,5.20
2023-04-26T02:06:45.001Z,9.10
2023-04-26T02:09:12.784Z,4.53
2023-04-26T02:11:41.459Z,5.37
2023-04-26T02:14:09.289Z,4.70
2023-04-26T02:16:36.943Z,4.87
2023-04-26T02:19:05.390Z,4.27
2023-04-26T02:21:33.122Z,4.90
2023-04-26T02:24:00.911Z,4.40
2023-04-26T02:26:28.425Z,4.60
2023-04-26T02:28:56.349Z,4.90
2023-04-26T02:31:23.923Z,4.50
2023-04-26T02:33:51.720Z,3.80
2023-04-26T02:36:19.875Z,4.43
2023-04-26T02:38:47.698Z,4.97
2023-04-26T02:41:15.207Z,4.37
2023-04-26T02:43:42.987Z,4.57
2023-04-26T02:46:11.104Z,6.27
2023-04-26T02:48:39.902Z,4.27
2023-04-26T02:51:08.061Z,3.90
2023-04-26T02:53:35.979Z,5.33
2023-04-26T02:56:03.849Z,4.73
2023-04-26T02:58:31.611Z,4.60
2023-04-26T03:01:01.446Z,4.63
2023-04-26T03:03:31.039Z,4.20
2023-04-26T03:05:58.824Z,4.93
2023-04-26T03:08:26.734Z,4.40
2023-04-26T03:10:54.500Z,6.17
2023-04-26T03:13:24.451Z,4.77
2023-04-26T03:15:53.802Z,4.53
2023-04-26T03:18:22.770Z,4.53
2023-04-26T03:20:50.802Z,4.77
2023-04-26T03:23:18.714Z,4.87
2023-04-26T03:25:47.045Z,5.30
2023-04-26T03:28:14.805Z,5.57
2023-04-26T03:30:42.908Z,5.10
2023-04-26T03:33:11.136Z,5.60
2023-04-26T03:35:38.633Z,5.60
2023-04-26T03:38:06.557Z,5.53
2023-04-26T03:40:34.059Z,5.87
2023-04-26T03:43:02.516Z,6.47
2023-04-26T03:45:30.153Z,5.10
2023-04-26T03:47:58.105Z,6.33
2023-04-26T03:50:25.822Z,5.53
2023-04-26T03:52:53.382Z,6.43
2023-04-26T03:55:20.677Z,5.87
2023-04-26T03:57:48.469Z,5.90
2023-04-26T04:00:16.400Z,6.17
2023-04-26T04:02:45.108Z,6.23
2023-04-26T04:05:21.068Z,5.53
2023-04-26T04:07:48.767Z,5.30
2023-04-26T04:10:16.632Z,5.70
2023-04-26T04:12:45.294Z,5.90
2023-04-26T04:15:12.734Z,5.37
2023-04-26T04:17:45.172Z,5.43
2023-04-26T04:20:13.374Z,5.87
2023-04-26T04:22:41.452Z,6.00
2023-04-26T04:25:10.590Z,5.80
2023-04-26T04:27:39.437Z,4.83
2023-04-26T04:30:09.661Z,5.37
2023-04-26T04:32:38.112Z,4.27
2023-04-26T04:35:07.490Z,5.70
2023-04-26T04:37:35.789Z,5.43
2023-04-26T04:40:04.590Z,4.60
2023-04-26T04:42:35.031Z,4.37
2023-04-26T04:45:05.471Z,5.50
2023-04-26T04:47:37.858Z,4.57
2023-04-26T04:50:07.140Z,5.47
2023-04-26T04:52:34.788Z,4.60
2023-04-26T04:55:02.114Z,4.73
2023-04-26T04:57:30.307Z,4.33
2023-04-26T04:59:58.407Z,4.67
2023-04-26T05:02:27.689Z,3.73
2023-04-26T05:04:56.091Z,4.47
2023-04-26T05:07:24.603Z,4.27
2023-04-26T05:09:53.866Z,4.50
2023-04-26T05:12:21.879Z,4.50
2023-04-26T05:14:49.220Z,3.70
2023-04-26T05:17:16.740Z,4.00
2023-04-26T05:19:44.562Z,4.90
2023-04-26T05:22:18.575Z,4.20
2023-04-26T05:24:47.587Z,3.67
2023-04-26T05:27:15.984Z,4.40
2023-04-26T05:30:06.478Z,3.83
2023-04-26T05:32:57.326Z,3.67
2023-04-26T05:35:34.613Z,4.17
2023-04-26T05:38:02.069Z,3.10
2023-04-26T05:40:29.992Z,3.50
2023-04-26T05:42:57.406Z,3.67
2023-04-26T05:45:26.553Z,4.00
2023-04-26T05:47:54.014Z,4.70
2023-04-26T05:50:21.449Z,3.30
2023-04-26T05:52:48.799Z,3.60
2023-04-26T05:55:16.154Z,2.90
2023-04-26T05:57:44.349Z,2.93
2023-04-26T06:00:12.598Z,3.60
2023-04-26T06:02:43.707Z,3.20
2023-04-26T06:05:16.071Z,3.03
2023-04-26T06:07:44.796Z,3.80
2023-04-26T06:10:13.179Z,2.67
2023-04-26T06:12:42.139Z,2.80
2023-04-26T06:15:10.172Z,3.13
2023-04-26T06:17:40.605Z,3.50
2023-04-26T06:20:12.083Z,3.10
2023-04-26T06:22:39.717Z,3.10
2023-04-26T06:25:08.147Z,3.43
2023-04-26T06:27:39.183Z,3.57
2023-04-26T06:30:07.975Z,2.70
2023-04-26T06:32:39.359Z,3.43
2023-04-26T06:35:07.158Z,3.13
2023-04-26T06:37:35.299Z,2.60
2023-04-26T06:40:02.784Z,3.10
2023-04-26T06:42:31.376Z,3.20
2023-04-26T06:45:30.961Z,3.13
2023-04-26T06:48:00.901Z,3.00
2023-04-26T06:50:28.442Z,2.87
2023-04-26T06:52:56.333Z,3.55
2023-04-26T06:55:24.087Z,2.45
2023-04-26T06:57:51.467Z,2.67
2023-04-26T07:00:19.098Z,2.92
2023-04-26T07:02:46.852Z,3.50
2023-04-26T07:05:15.474Z,2.55
2023-04-26T07:07:43.190Z,3.78
2023-04-26T07:10:11.308Z,2.08
2023-04-26T07:12:38.992Z,2.42
2023-04-26T07:15:09.689Z,3.25
2023-04-26T07:17:37.189Z,3.38
2023-04-26T07:20:04.947Z,2.75
2023-04-26T07:22:32.876Z,2.65
2023-04-26T07:24:59.968Z,3.03
2023-04-26T07:27:27.313Z,2.97
2023-04-26T07:29:56.199Z,2.90
2023-04-26T07:32:23.776Z,4.30
2023-04-26T07:34:50.871Z,4.38
2023-04-26T07:37:18.281Z,3.00
2023-04-26T07:39:45.684Z,4.53
2023-04-26T07:42:13.485Z,2.95
2023-04-26T07:44:40.736Z,2.80
2023-04-26T07:47:14.491Z,1.83
2023-04-26T07:49:42.163Z,2.40
2023-04-26T07:52:09.763Z,2.45
2023-04-26T07:54:37.253Z,2.30
2023-04-26T07:57:04.593Z,3.10
2023-04-26T07:59:31.728Z,2.58
2023-04-26T08:01:59.169Z,2.20
2023-04-26T08:04:36.666Z,2.65
2023-04-26T08:07:04.248Z,2.08
2023-04-26T08:09:31.502Z,2.00
2023-04-26T08:11:59.087Z,1.88
2023-04-26T08:14:26.265Z,2.40
2023-04-26T08:16:53.732Z,2.17
2023-04-26T08:19:21.772Z,2.42
2023-04-26T08:21:49.552Z,2.22
2023-04-26T08:24:16.617Z,2.55
2023-04-26T08:26:44.030Z,2.20
2023-04-26T08:29:11.098Z,2.60
2023-04-26T08:31:38.768Z,2.50
2023-04-26T08:34:06.423Z,2.70
2023-04-26T08:36:37.216Z,3.75
2023-04-26T08:39:05.056Z,2.65
2023-04-26T08:41:36.887Z,17.65
2023-04-26T08:44:08.451Z,5.88
2023-04-26T08:46:52.338Z,6.45
2023-04-26T08:49:40.039Z,10.63
2023-04-26T08:52:12.810Z,16.35
2023-04-26T08:54:40.936Z,9.15
2023-04-26T08:57:08.851Z,5.57
2023-04-26T08:59:39.691Z,2.88
2023-04-26T09:02:08.121Z,4.18
2023-04-26T09:04:36.261Z,3.95
2023-04-26T09:07:07.352Z,7.60
2023-04-26T09:09:42.574Z,6.13
2023-04-26T09:12:09.961Z,4.77
2023-04-26T09:14:38.762Z,6.50
2023-04-26T09:17:06.341Z,5.80
2023-04-26T09:19:38.727Z,4.90
2023-04-26T09:22:06.690Z,4.20
2023-04-26T09:24:52.253Z,3.50
2023-04-26T09:27:20.808Z,4.90
2023-04-26T09:30:11.045Z,3.30
2023-04-26T09:33:00.893Z,3.23
2023-04-26T09:35:32.862Z,3.27
2023-04-26T09:38:19.742Z,3.60
2023-04-26T09:40:50.665Z,2.77
2023-04-26T09:43:20.749Z,3.27
2023-04-26T09:45:50.633Z,3.13
2023-04-26T09:48:26.243Z,3.90
2023-04-26T09:50:55.637Z,3.37
2023-04-26T09:53:37.283Z,3.70
2023-04-26T09:56:10.709Z,2.80
2023-04-26T09:58:40.762Z,3.72
2023-04-26T10:01:09.299Z,8.45
2023-04-26T10:03:38.142Z,2.60
2023-04-26T10:06:06.711Z,3.45
2023-04-26T10:08:34.413Z,3.33
2023-04-26T10:11:02.345Z,3.47
2023-04-26T10:13:32.440Z,2.97
2023-04-26T10:16:01.752Z,2.75
2023-04-26T10:18:30.552Z,2.00
2023-04-26T10:21:02.274Z,2.85
2023-04-26T10:23:30.249Z,2.20
2023-04-26T10:25:57.826Z,3.05
2023-04-26T10:28:40.673Z,2.70
2023-04-26T10:31:07.894Z,2.50
2023-04-26T10:33:35.527Z,1.95
2023-04-26T10:36:13.423Z,2.05
2023-04-26T10:39:02.312Z,1.75
2023-04-26T10:41:34.897Z,1.35
2023-04-26T10:44:37.593Z,2.28
2023-04-26T10:47:06.733Z,1.92
2023-04-26T10:49:48.400Z,2.55
2023-04-26T10:52:20.641Z,2.15
2023-04-26T10:54:50.265Z,6.07
2023-04-26T10:57:18.341Z,2.40
2023-04-26T11:00:14.560Z,2.10
2023-04-26T11:02:56.471Z,2.93
2023-04-26T11:05:33.134Z,2.37
2023-04-26T11:08:17.181Z,2.37
2023-04-26T11:10:51.165Z,3.67
2023-04-26T11:13:22.091Z,3.10
2023-04-26T11:16:10.739Z,3.65
2023-04-26T11:18:39.654Z,3.15
2023-04-26T11:21:07.323Z,3.17
2023-04-26T11:23:35.785Z,2.93
2023-04-26T11:26:05.968Z,4.13
2023-04-26T11:28:37.107Z,3.30
2023-04-26T11:31:05.585Z,3.77
2023-04-26T11:33:36.408Z,3.40
2023-04-26T11:36:04.354Z,2.97
2023-04-26T11:38:31.855Z,3.30
2023-04-26T11:41:00.943Z,4.13
2023-04-26T11:43:39.011Z,2.93
2023-04-26T11:46:07.853Z,3.07
2023-04-26T11:48:36.835Z,6.23
2023-04-26T11:51:06.102Z,8.18
2023-04-26T11:53:43.297Z,8.27
2023-04-26T11:56:22.068Z,11.07
2023-04-26T11:58:53.320Z,8.13
2023-04-26T12:01:30.842Z,6.25
2023-04-26T12:03:59.529Z,4.55
2023-04-26T12:06:42.796Z,5.45
2023-04-26T12:09:11.597Z,4.35
2023-04-26T12:11:39.843Z,3.53
2023-04-26T12:14:11.575Z,4.70
2023-04-26T12:16:38.976Z,7.70
2023-04-26T12:19:07.763Z,2.60
2023-04-26T12:21:43.035Z,2.80
2023-04-26T12:24:24.251Z,2.90
2023-04-26T12:26:52.278Z,2.83
2023-04-26T12:29:19.385Z,2.20
2023-04-26T12:31:47.252Z,2.30
2023-04-26T12:34:16.949Z,3.10
2023-04-26T12:36:44.672Z,3.30
2023-04-26T12:39:13.702Z,6.55
2023-04-26T12:41:41.894Z,2.67
2023-04-26T12:44:09.853Z,7.40
2023-04-26T12:46:37.909Z,3.85
2023-04-26T12:49:05.319Z,1.70
2023-04-26T12:51:33.897Z,1.80
2023-04-26T12:54:01.586Z,1.85
2023-04-26T12:56:29.697Z,1.80
2023-04-26T12:58:57.261Z,1.35
2023-04-26T13:01:25.273Z,1.70
2023-04-26T13:03:53.204Z,1.77
2023-04-26T13:06:21.306Z,4.97
2023-04-26T13:08:48.502Z,8.27
2023-04-26T13:11:19.133Z,4.10
2023-04-26T13:13:46.447Z,3.90
2023-04-26T13:16:14.568Z,3.85
2023-04-26T13:18:42.085Z,2.40
2023-04-26T13:21:09.632Z,2.05
2023-04-26T13:23:36.880Z,2.85
2023-04-26T13:26:04.362Z,2.60
2023-04-26T13:28:31.640Z,3.60
2023-04-26T13:30:59.711Z,6.53
2023-04-26T13:33:27.343Z,5.47
2023-04-26T13:35:54.984Z,6.00
2023-04-26T13:38:22.415Z,5.97
2023-04-26T13:40:49.833Z,6.25
2023-04-26T13:43:17.069Z,4.85
2023-04-26T13:45:44.951Z,9.20
2023-04-26T13:48:12.690Z,3.95
2023-04-26T13:50:40.833Z,2.00
2023-04-26T13:53:08.400Z,3.10
2023-04-26T13:55:35.911Z,1.48
2023-04-26T13:58:03.111Z,3.53
2023-04-26T14:00:30.578Z,3.38
2023-04-26T14:02:59.041Z,4.93
2023-04-26T14:05:26.641Z,7.03
2023-04-26T14:07:55.178Z,32.67
2023-04-26T14:10:23.508Z,25.38
2023-04-26T14:12:51.146Z,32.75
2023-04-26T14:15:18.708Z,60.60
2023-04-26T14:17:47.116Z,13.07
2023-04-26T14:20:14.807Z,10.57
2023-04-26T14:22:42.020Z,14.47
2023-04-26T14:25:09.924Z,11.67
2023-04-26T14:27:38.170Z,8.53
2023-04-26T14:30:06.024Z,8.83
2023-04-26T14:32:33.524Z,9.60
2023-04-26T14:35:00.810Z,7.40
2023-04-26T14:37:28.465Z,9.40
2023-04-26T14:39:55.713Z,5.75
2023-04-26T14:42:23.180Z,10.85
2023-04-26T14:44:50.749Z,6.32
2023-04-26T14:47:18.126Z,5.53
2023-04-26T14:49:45.397Z,4.25
2023-04-26T14:52:12.782Z,6.32
2023-04-26T14:54:40.656Z,6.40
2023-04-26T14:57:08.852Z,7.00
2023-04-26T14:59:36.647Z,7.03
2023-04-26T15:02:05.168Z,4.57
2023-04-26T15:04:32.929Z,5.00
2023-04-26T15:07:01.346Z,3.80
2023-04-26T15:09:30.381Z,4.13
2023-04-26T15:11:58.253Z,6.40
2023-04-26T15:14:25.910Z,19.10
2023-04-26T15:16:54.054Z,13.93
2023-04-26T15:19:22.141Z,20.07
2023-04-26T15:21:50.560Z,16.90
2023-04-26T15:24:18.240Z,15.60
2023-04-26T15:26:46.672Z,7.40
2023-04-26T15:29:15.220Z,11.30
2023-04-26T15:31:43.009Z,11.00
2023-04-26T15:34:10.808Z,7.77
2023-04-26T15:36:38.833Z,8.97
2023-04-26T15:39:06.493Z,8.67
2023-04-26T15:41:34.371Z,8.53
2023-04-26T15:44:01.910Z,7.10
2023-04-26T15:46:29.684Z,8.40
2023-04-26T15:48:57.661Z,7.17
2023-04-26T15:51:26.146Z,3.93
2023-04-26T15:53:53.748Z,4.47
2023-04-26T15:56:21.658Z,3.33
2023-04-26T15:58:49.112Z,4.90
2023-04-26T16:01:17.159Z,9.37
2023-04-26T16:03:47.526Z,4.03
2023-04-26T16:06:16.157Z,2.83
2023-04-26T16:08:45.367Z,2.93
2023-04-26T16:11:13.606Z,2.80
2023-04-26T16:13:41.356Z,4.33
2023-04-26T16:16:10.960Z,4.10
2023-04-26T16:18:43.878Z,5.63
2023-04-26T16:21:13.079Z,5.03
2023-04-26T16:23:44.068Z,2.83
2023-04-26T16:26:12.673Z,3.03
2023-04-26T16:28:40.836Z,3.83
2023-04-26T16:31:08.315Z,2.83
2023-04-26T16:33:35.662Z,6.80
2023-04-26T16:36:03.791Z,6.60
2023-04-26T16:38:31.512Z,3.87
2023-04-26T16:41:01.687Z,14.03
2023-04-26T16:43:30.692Z,3.17
2023-04-26T16:46:02.309Z,4.50
2023-04-26T16:48:34.324Z,5.27
2023-04-26T16:51:07.174Z,3.03
2023-04-26T16:53:36.062Z,7.57
2023-04-26T16:56:04.483Z,5.13
2023-04-26T16:58:32.116Z,5.37
2023-04-26T17:00:59.984Z,4.10
2023-04-26T17:03:28.513Z,9.03
2023-04-26T17:05:56.557Z,10.70
2023-04-26T17:08:23.926Z,19.63
2023-04-26T17:10:52.799Z,23.30
2023-04-26T17:13:21.051Z,21.97
2023-04-26T17:15:49.181Z,17.53
2023-04-26T17:18:16.752Z,12.63
2023-04-26T17:20:44.744Z,15.43
2023-04-26T17:23:12.475Z,19.00
2023-04-26T17:25:40.531Z,13.87
2023-04-26T17:28:08.196Z,6.67
2023-04-26T17:30:36.149Z,10.73
2023-04-26T17:33:05.632Z,6.93
2023-04-26T17:35:33.679Z,7.30
2023-04-26T17:38:01.326Z,6.93
2023-04-26T17:40:29.175Z,13.00
2023-04-26T17:42:57.192Z,19.10
2023-04-26T17:45:25.517Z,14.97
2023-04-26T17:47:53.233Z,16.17
2023-04-26T17:50:22.173Z,12.33
2023-04-26T17:52:49.681Z,12.57
2023-04-26T17:55:17.562Z,14.43
2023-04-26T17:57:45.210Z,13.83
2023-04-26T18:00:13.925Z,15.43
2023-04-26T18:02:43.287Z,14.37
2023-04-26T18:05:11.899Z,12.93
2023-04-26T18:07:39.643Z,15.00
2023-04-26T18:10:08.156Z,14.40
2023-04-26T18:12:36.449Z,6.20
2023-04-26T18:15:04.377Z,6.03
2023-04-26T18:17:31.869Z,10.47
2023-04-26T18:19:59.876Z,13.20
2023-04-26T18:22:27.625Z,15.23
2023-04-26T18:24:55.219Z,13.17
2023-04-26T18:27:22.900Z,10.00
2023-04-26T18:29:51.144Z,6.83
2023-04-26T18:32:18.794Z,5.53
2023-04-26T18:34:46.867Z,4.70
2023-04-26T18:37:14.793Z,4.70
2023-04-26T18:39:42.859Z,5.80
2023-04-26T18:42:10.929Z,8.90
2023-04-26T18:44:39.091Z,8.70
2023-04-26T18:47:06.990Z,9.60
2023-04-26T18:49:35.008Z,7.50
2023-04-26T18:52:03.133Z,5.30
2023-04-26T18:54:32.262Z,5.53
2023-04-26T18:57:01.340Z,6.10
2023-04-26T18:59:31.426Z,7.37
2023-04-26T19:01:59.313Z,4.97
2023-04-26T19:04:27.741Z,4.17
2023-04-26T19:06:55.810Z,4.87
2023-04-26T19:09:23.730Z,4.63
2023-04-26T19:11:51.430Z,4.93
2023-04-26T19:14:19.312Z,3.50
2023-04-26T19:16:47.201Z,3.83
2023-04-26T19:19:15.311Z,5.60
2023-04-26T19:21:43.325Z,4.07
2023-04-26T19:24:11.468Z,3.87
2023-04-26T19:26:38.877Z,4.43
2023-04-26T19:29:07.123Z,3.30
2023-04-26T19:31:35.112Z,11.40
2023-04-26T19:34:03.961Z,10.47
2023-04-26T19:36:31.831Z,7.63
2023-04-26T19:38:59.727Z,8.23
2023-04-26T19:41:27.691Z,7.23
2023-04-26T19:43:56.645Z,6.37
2023-04-26T19:46:24.341Z,6.63
2023-04-26T19:48:52.184Z,4.60
2023-04-26T19:51:19.711Z,3.90
2023-04-26T19:53:47.876Z,4.27
2023-04-26T19:56:15.720Z,3.93
2023-04-26T19:58:43.736Z,3.53
2023-04-26T20:01:11.712Z,3.07
2023-04-26T20:03:41.739Z,3.77
2023-04-26T20:06:10.586Z,3.30
2023-04-26T20:08:38.134Z,3.87
2023-04-26T20:11:05.766Z,3.37
2023-04-26T20:13:34.211Z,4.53
2023-04-26T20:16:01.782Z,5.60
2023-04-26T20:18:29.484Z,6.03
2023-04-26T20:20:56.739Z,5.80
2023-04-26T20:23:24.193Z,5.27
2023-04-26T20:25:52.046Z,4.10
2023-04-26T20:28:20.495Z,3.37
2023-04-26T20:30:47.852Z,3.20
2023-04-26T20:33:15.341Z,3.60
2023-04-26T20:35:42.846Z,3.40
2023-04-26T20:38:10.992Z,3.93
2023-04-26T20:40:38.437Z,4.07
2023-04-26T20:43:06.370Z,3.63
2023-04-26T20:45:33.527Z,5.70
2023-04-26T20:48:01.551Z,8.30
2023-04-26T20:50:28.942Z,7.10
2023-04-26T20:52:56.555Z,5.97
2023-04-26T20:55:24.059Z,6.00
2023-04-26T20:57:51.928Z,5.77
2023-04-26T21:00:19.715Z,5.60
2023-04-26T21:02:47.351Z,4.90
2023-04-26T21:05:15.008Z,5.23
2023-04-26T21:07:42.400Z,5.10
2023-04-26T21:10:10.192Z,4.63
2023-04-26T21:12:38.230Z,6.97
2023-04-26T21:15:06.096Z,9.67
2023-04-26T21:17:35.423Z,10.30
2023-04-26T21:20:03.183Z,9.83
2023-04-26T21:22:31.225Z,7.57
2023-04-26T21:24:58.943Z,6.33
2023-04-26T21:27:26.996Z,6.50
2023-04-26T21:29:54.082Z,6.47
2023-04-26T21:32:21.468Z,5.60
2023-04-26T21:34:48.558Z,6.30
2023-04-26T21:37:16.840Z,5.67
2023-04-26T21:39:43.978Z,6.47
2023-04-26T21:42:11.749Z,6.57
2023-04-26T21:44:38.856Z,7.70
2023-04-26T21:47:06.473Z,7.03
2023-04-26T21:49:34.703Z,6.97
2023-04-26T21:52:02.064Z,7.63
2023-04-26T21:54:29.161Z,7.97
2023-04-26T21:56:56.552Z,7.47
2023-04-26T21:59:23.702Z,6.87
2023-04-26T22:01:51.142Z,6.87
2023-04-26T22:04:18.606Z,6.17
2023-04-26T22:06:46.066Z,6.00
2023-04-26T22:09:13.805Z,6.53
2023-04-26T22:11:41.566Z,6.47
2023-04-26T22:14:08.867Z,5.57
2023-04-26T22:16:36.283Z,6.60
2023-04-26T22:19:03.368Z,7.00
2023-04-26T22:21:32.321Z,6.00
2023-04-26T22:23:59.970Z,6.23
2023-04-26T22:26:27.451Z,7.30
2023-04-26T22:28:54.544Z,6.23
2023-04-26T22:31:21.947Z,6.97
2023-04-26T22:33:49.122Z,6.80
2023-04-26T22:36:16.873Z,6.80
2023-04-26T22:38:43.962Z,7.17
2023-04-26T22:41:11.556Z,6.80
2023-04-26T22:43:41.536Z,7.37
2023-04-26T22:46:08.896Z,7.97
2023-04-26T22:48:36.059Z,7.03
2023-04-26T22:51:03.491Z,6.80
2023-04-26T22:53:30.731Z,7.70
2023-04-26T22:55:58.049Z,8.90
2023-04-26T22:58:25.626Z,7.47
2023-04-26T23:00:53.053Z,7.83
2023-04-26T23:03:20.743Z,6.93
2023-04-26T23:05:49.785Z,8.37
2023-04-26T23:08:17.078Z,7.40
2023-04-26T23:10:44.351Z,7.90
2023-04-26T23:13:11.369Z,8.10
2023-04-26T23:15:39.282Z,7.83
2023-04-26T23:18:06.379Z,7.57
2023-04-26T23:20:34.121Z,8.33
2023-04-26T23:23:01.571Z,9.40
2023-04-26T23:25:29.380Z,8.30
2023-04-26T23:27:56.857Z,11.73
2023-04-26T23:30:24.582Z,12.30
2023-04-26T23:32:52.103Z,11.90
2023-04-26T23:35:20.097Z,13.83
2023-04-26T23:37:47.557Z,13.20
2023-04-26T23:40:14.912Z,12.53
2023-04-26T23:42:42.363Z,12.50
2023-04-26T23:45:10.512Z,12.60
2023-04-26T23:48:02.975Z,8.53
2023-04-26T23:50:30.790Z,9.40
2023-04-26T23:52:58.262Z,9.90
2023-04-26T23:55:25.988Z,9.23
2023-04-26T23:57:53.519Z,9.17
